Time;durP1;ratioP1;P1;durP2;ratioP2;P2;SDS_P1;SDS_P2;PMS_P1;PMS_P2;Temp;Humidity;BMP_temperature;BMP_pressure;BME280_temperature;BME280_humidity;BME280_pressure;Samples;Min_cycle;Max_cycle;Signal;HPM_P1;HPM_P2
2022/09/10 00:00:42;;;;;;;24.13;17.15;;;16.70;99.90;;;;;;4146306;28;20096;-63
2022/09/10 00:02:44;;;;;;;23.70;17.08;;;16.60;99.90;;;;;;4144859;28;20076;-64
2022/09/10 00:04:45;;;;;;;24.73;17.38;;;16.60;99.90;;;;;;4144888;28;20108;-64
2022/09/10 00:06:46;;;;;;;22.17;17.77;;;16.60;99.90;;;;;;4144423;28;20105;-63
2022/09/10 00:08:48;;;;;;;26.92;16.80;;;16.70;99.90;;;;;;4145667;28;20112;-63
2022/09/10 00:10:50;;;;;;;23.92;16.90;;;16.60;99.90;;;;;;4145170;28;20025;-63
2022/09/10 00:12:52;;;;;;;21.13;16.23;;;16.60;99.90;;;;;;4145225;28;20573;-63
2022/09/10 00:14:55;;;;;;;25.33;18.17;;;16.70;99.90;;;;;;4145994;28;20437;-63
2022/09/10 00:16:56;;;;;;;24.05;17.58;;;16.60;99.90;;;;;;4144905;28;20045;-65
2022/09/10 00:18:57;;;;;;;21.38;16.30;;;16.70;99.90;;;;;;4146109;28;20046;-64
2022/09/10 00:21:01;;;;;;;22.48;16.48;;;16.70;99.90;;;;;;4144545;28;20092;-65
2022/09/10 00:23:02;;;;;;;20.33;16.23;;;16.70;99.90;;;;;;4144494;28;20038;-63
2022/09/10 00:25:04;;;;;;;20.30;15.57;;;16.70;99.90;;;;;;4144262;28;20038;-63
2022/09/10 00:27:05;;;;;;;24.40;17.30;;;16.70;99.90;;;;;;4144474;28;20041;-65
2022/09/10 00:29:09;;;;;;;23.40;16.98;;;16.60;99.90;;;;;;4144746;28;20383;-64
2022/09/10 00:31:12;;;;;;;25.63;16.67;;;16.70;99.90;;;;;;4145863;28;20037;-63
2022/09/10 00:33:15;;;;;;;20.88;17.05;;;16.60;99.90;;;;;;4144520;28;20088;-65
2022/09/10 00:35:16;;;;;;;23.27;17.20;;;16.60;99.90;;;;;;4145820;28;20437;-64
2022/09/10 00:37:18;;;;;;;25.23;17.83;;;16.60;99.90;;;;;;4143953;28;20033;-64
2022/09/10 00:39:19;;;;;;;23.35;17.23;;;16.60;99.90;;;;;;4145714;28;21044;-64
2022/09/10 00:41:22;;;;;;;26.63;18.42;;;16.70;99.90;;;;;;4144653;28;20022;-64
2022/09/10 00:43:23;;;;;;;20.98;16.48;;;16.60;99.90;;;;;;4145174;28;20440;-63
2022/09/10 00:45:35;;;;;;;24.05;18.40;;;16.60;99.90;;;;;;4145342;28;20088;-63
2022/09/10 00:47:38;;;;;;;22.77;17.50;;;16.60;99.90;;;;;;4143791;28;20046;-62
2022/09/10 00:49:44;;;;;;;25.65;18.10;;;16.60;99.90;;;;;;4145131;28;20473;-62
2022/09/10 00:51:47;;;;;;;25.95;17.75;;;16.50;99.90;;;;;;4144498;28;20124;-64
2022/09/10 00:53:49;;;;;;;21.30;16.88;;;16.50;99.90;;;;;;4145027;28;20037;-63
2022/09/10 00:55:53;;;;;;;28.02;18.92;;;16.50;99.90;;;;;;4144409;28;20030;-63
2022/09/10 00:57:59;;;;;;;25.08;18.67;;;16.50;99.90;;;;;;4144916;28;20417;-64
2022/09/10 01:00:10;;;;;;;26.50;19.17;;;16.50;99.90;;;;;;4143545;28;20080;-63
2022/09/10 01:02:12;;;;;;;27.27;19.48;;;16.40;99.90;;;;;;4145637;28;20023;-63
2022/09/10 01:04:14;;;;;;;29.92;19.77;;;16.40;99.90;;;;;;4144137;28;20485;-63
2022/09/10 01:06:17;;;;;;;29.25;20.88;;;16.40;99.90;;;;;;4145346;28;20045;-63
2022/09/10 01:08:18;;;;;;;27.88;19.88;;;16.40;99.90;;;;;;4144537;28;20045;-63
2022/09/10 01:10:27;;;;;;;30.38;21.38;;;16.40;99.90;;;;;;4145308;28;20033;-63
2022/09/10 01:12:59;;;;;;;31.85;21.13;;;16.40;99.90;;;;;;4144254;28;20042;-64
2022/09/10 01:15:17;;;;;;;32.80;22.35;;;16.40;99.90;;;;;;4145528;28;20072;-63
2022/09/10 01:17:37;;;;;;;44.42;21.33;;;16.40;99.90;;;;;;4146836;28;20080;-65
2022/09/10 01:19:57;;;;;;;32.40;20.83;;;16.40;99.90;;;;;;4148384;28;20034;-64
2022/09/10 01:22:25;;;;;;;57.45;24.58;;;16.50;99.90;;;;;;4147487;28;20022;-64
2022/09/10 01:24:47;;;;;;;65.20;24.23;;;16.40;99.90;;;;;;4147670;28;20022;-64
2022/09/10 01:27:06;;;;;;;33.88;20.52;;;16.40;99.90;;;;;;4147676;28;20445;-65
2022/09/10 01:29:25;;;;;;;49.00;23.52;;;16.50;99.90;;;;;;4147144;28;20142;-63
2022/09/10 01:31:41;;;;;;;107.87;24.43;;;16.50;99.90;;;;;;4148367;28;20524;-64
2022/09/10 01:33:51;;;;;;;139.15;24.55;;;16.50;99.90;;;;;;4147042;28;20077;-65
2022/09/10 01:35:54;;;;;;;;;;;16.40;99.90;;;;;;4148594;28;20100;-65
2022/09/10 01:38:04;;;;;;;45.83;22.92;;;16.40;99.90;;;;;;4147079;28;19967;-65
2022/09/10 01:40:06;;;;;;;;;;;16.40;99.90;;;;;;4148710;28;20033;-70
2022/09/10 01:42:07;;;;;;;85.47;23.17;;;16.40;99.90;;;;;;4146978;28;19913;-67
2022/09/10 01:45:00;;;;;;;68.40;23.20;;;16.40;99.90;;;;;;4148031;28;20092;-69
2022/09/10 01:47:13;;;;;;;93.13;23.60;;;16.40;99.90;;;;;;4138074;28;20061;-67
2022/09/10 01:49:30;;;;;;;102.80;24.13;;;16.30;99.90;;;;;;4148345;28;20041;-69
2022/09/10 01:51:52;;;;;;;58.75;23.58;;;16.30;99.90;;;;;;4146664;28;20042;-67
2022/09/10 01:54:15;;;;;;;57.40;23.80;;;16.30;99.90;;;;;;4147582;28;20034;-68
2022/09/10 01:56:16;;;;;;;64.88;25.35;;;16.30;99.90;;;;;;4147042;28;20041;-62
2022/09/10 01:58:47;;;;;;;45.38;25.30;;;16.30;99.90;;;;;;4147611;28;20034;-65
2022/09/10 02:00:58;;;;;;;47.33;25.42;;;16.30;99.90;;;;;;4139066;28;20651;-65
2022/09/10 02:03:10;;;;;;;42.55;26.45;;;16.40;99.90;;;;;;4147570;28;20486;-67
2022/09/10 02:05:12;;;;;;;45.47;25.77;;;16.30;99.90;;;;;;4146549;28;20088;-66
2022/09/10 02:07:16;;;;;;;49.17;27.20;;;16.40;99.90;;;;;;4147025;28;20087;-65
2022/09/10 02:09:18;;;;;;;62.17;26.58;;;16.30;99.90;;;;;;4146726;28;20104;-67
2022/09/10 02:11:20;;;;;;;49.85;27.05;;;16.40;99.90;;;;;;4147780;28;20034;-66
2022/09/10 02:13:22;;;;;;;47.10;25.33;;;16.40;99.90;;;;;;4146922;28;20050;-70
2022/09/10 02:15:27;;;;;;;41.25;25.27;;;16.40;99.90;;;;;;4147807;28;20096;-68
2022/09/10 02:17:32;;;;;;;40.72;23.70;;;16.40;99.90;;;;;;4146648;28;20046;-64
2022/09/10 02:19:34;;;;;;;51.33;25.80;;;16.50;99.90;;;;;;4147947;28;20050;-63
2022/09/10 02:21:36;;;;;;;124.20;27.08;;;16.50;99.90;;;;;;4146210;28;20418;-68
2022/09/10 02:23:47;;;;;;;127.40;26.55;;;16.50;99.90;;;;;;4147777;28;20030;-68
2022/09/10 02:25:49;;;;;;;42.60;24.27;;;16.40;99.90;;;;;;4146469;28;20073;-66
2022/09/10 02:27:50;;;;;;;35.40;22.23;;;16.40;99.90;;;;;;4146807;28;20057;-65
2022/09/10 02:29:51;;;;;;;35.85;24.02;;;16.50;99.90;;;;;;4146301;28;20116;-67
2022/09/10 02:31:52;;;;;;;38.28;24.13;;;16.50;99.90;;;;;;4147633;28;20038;-65
2022/09/10 02:33:53;;;;;;;36.75;23.23;;;16.50;99.90;;;;;;4146346;28;20030;-65
2022/09/10 02:35:54;;;;;;;36.63;24.20;;;16.40;99.90;;;;;;4146926;28;20034;-65
2022/09/10 02:37:57;;;;;;;41.10;25.00;;;16.50;99.90;;;;;;4146589;28;20038;-66
2022/09/10 02:39:58;;;;;;;38.95;23.98;;;16.50;99.90;;;;;;4146697;28;20034;-68
2022/09/10 02:41:59;;;;;;;34.03;22.05;;;16.50;99.90;;;;;;4146905;28;20045;-69
2022/09/10 02:44:01;;;;;;;37.40;23.83;;;16.50;99.90;;;;;;4146349;28;20157;-66
2022/09/10 02:46:06;;;;;;;35.28;22.48;;;16.50;99.90;;;;;;4147166;28;20085;-63
2022/09/10 02:48:07;;;;;;;32.42;21.73;;;16.50;99.90;;;;;;4145834;28;20033;-65
2022/09/10 02:50:08;;;;;;;32.60;21.23;;;16.50;99.90;;;;;;4147308;28;20100;-68
2022/09/10 02:52:11;;;;;;;33.72;21.40;;;16.50;99.90;;;;;;4145652;28;20446;-67
2022/09/10 02:54:12;;;;;;;35.35;21.13;;;16.50;99.90;;;;;;4147262;28;20042;-67
2022/09/10 02:56:14;;;;;;;33.10;21.73;;;16.50;99.90;;;;;;4146125;28;20041;-62
2022/09/10 02:58:15;;;;;;;30.55;20.50;;;16.50;99.90;;;;;;4146868;28;20081;-63
2022/09/10 03:00:18;;;;;;;26.55;18.95;;;16.50;99.90;;;;;;4146070;28;20053;-62
2022/09/10 03:02:19;;;;;;;36.35;21.80;;;16.40;99.90;;;;;;4145701;28;20050;-70
2022/09/10 03:04:21;;;;;;;30.88;20.55;;;16.40;99.90;;;;;;4144193;28;20120;-65
2022/09/10 03:06:23;;;;;;;28.83;20.98;;;16.40;99.90;;;;;;4146607;28;20383;-66
2022/09/10 03:08:25;;;;;;;30.83;20.95;;;16.40;99.90;;;;;;4145780;28;20107;-63
2022/09/10 03:10:26;;;;;;;38.67;23.75;;;16.50;99.90;;;;;;4146578;28;20499;-67
2022/09/10 03:12:27;;;;;;;35.88;23.00;;;16.40;99.90;;;;;;4146025;28;20038;-67
2022/09/10 03:14:29;;;;;;;35.83;23.88;;;16.40;99.90;;;;;;4146292;28;20037;-65
2022/09/10 03:16:30;;;;;;;38.15;22.73;;;16.40;99.90;;;;;;4146580;28;20378;-62
2022/09/10 03:18:31;;;;;;;28.55;21.02;;;16.40;99.90;;;;;;4145740;28;20446;-65
2022/09/10 03:20:32;;;;;;;28.70;20.05;;;16.40;99.90;;;;;;4146835;28;20253;-62
2022/09/10 03:22:33;;;;;;;28.48;20.63;;;16.40;99.90;;;;;;4145301;28;20026;-69
2022/09/10 03:24:34;;;;;;;28.77;20.90;;;16.30;99.90;;;;;;4146724;28;20367;-66
2022/09/10 03:26:36;;;;;;;29.15;20.77;;;16.40;99.90;;;;;;4145478;28;20100;-66
2022/09/10 03:28:37;;;;;;;29.90;20.25;;;16.40;99.90;;;;;;4146457;28;20033;-63
2022/09/10 03:30:39;;;;;;;29.67;20.48;;;16.30;99.90;;;;;;4145251;28;20030;-64
2022/09/10 03:32:40;;;;;;;28.02;20.35;;;16.40;99.90;;;;;;4146285;28;20353;-66
2022/09/10 03:34:43;;;;;;;28.50;20.58;;;16.40;99.90;;;;;;4144909;28;20502;-64
2022/09/10 03:36:46;;;;;;;28.67;20.48;;;16.40;99.90;;;;;;4146121;28;20478;-69
2022/09/10 03:38:47;;;;;;;30.67;21.70;;;16.40;99.90;;;;;;4145191;28;20022;-67
2022/09/10 03:40:49;;;;;;;26.20;19.88;;;16.50;99.90;;;;;;4145059;28;20042;-67
2022/09/10 03:42:50;;;;;;;30.35;20.20;;;16.50;99.90;;;;;;4145449;28;20029;-63
2022/09/10 03:44:51;;;;;;;27.98;20.55;;;16.50;99.90;;;;;;4145814;28;20042;-68
2022/09/10 03:46:52;;;;;;;27.00;20.30;;;16.50;99.90;;;;;;4146363;28;20042;-64
2022/09/10 03:48:53;;;;;;;25.77;19.48;;;16.50;99.90;;;;;;4145451;28;20826;-64
2022/09/10 03:50:55;;;;;;;25.83;19.25;;;16.60;99.90;;;;;;4145958;28;20037;-65
2022/09/10 03:52:56;;;;;;;29.05;20.58;;;16.50;99.90;;;;;;4144170;28;20033;-66
2022/09/10 03:54:57;;;;;;;26.48;19.20;;;16.60;99.90;;;;;;4146831;28;20042;-65
2022/09/10 03:57:01;;;;;;;28.70;19.67;;;16.60;99.90;;;;;;4145625;28;20498;-67
2022/09/10 03:59:02;;;;;;;20.98;16.73;;;16.60;99.90;;;;;;4146229;28;20038;-63
2022/09/10 04:01:03;;;;;;;23.17;17.70;;;16.60;99.90;;;;;;4144751;28;20111;-64
2022/09/10 04:03:05;;;;;;;25.33;18.25;;;16.60;99.90;;;;;;4146581;28;20111;-63
2022/09/10 04:05:07;;;;;;;27.98;19.08;;;16.60;99.90;;;;;;4144882;28;20060;-63
2022/09/10 04:07:09;;;;;;;25.83;19.35;;;16.60;99.90;;;;;;4145630;28;20046;-64
2022/09/10 04:09:10;;;;;;;24.30;19.65;;;16.60;99.90;;;;;;4144768;28;20046;-63
2022/09/10 04:11:12;;;;;;;28.40;19.55;;;16.60;99.90;;;;;;4144963;28;20426;-64
2022/09/10 04:13:14;;;;;;;26.17;18.70;;;16.60;99.90;;;;;;4144883;28;20033;-63
2022/09/10 04:15:15;;;;;;;25.70;17.77;;;16.60;99.90;;;;;;4145396;28;20080;-62
2022/09/10 04:17:16;;;;;;;24.63;19.10;;;16.60;99.90;;;;;;4145690;28;20026;-64
2022/09/10 04:19:18;;;;;;;29.83;20.02;;;16.60;99.90;;;;;;4144902;28;20055;-62
2022/09/10 04:21:19;;;;;;;25.65;18.50;;;16.60;99.90;;;;;;4144217;28;20595;-64
2022/09/10 04:23:20;;;;;;;23.27;17.92;;;16.60;99.90;;;;;;4144717;28;20469;-65
2022/09/10 04:25:22;;;;;;;27.55;19.08;;;16.60;99.90;;;;;;4145833;28;20119;-64
2022/09/10 04:27:23;;;;;;;26.50;18.70;;;16.60;99.90;;;;;;4144412;28;20038;-63
2022/09/10 04:29:24;;;;;;;26.23;19.30;;;16.60;99.90;;;;;;4145541;28;20026;-64
2022/09/10 04:31:25;;;;;;;25.15;18.95;;;16.60;99.90;;;;;;4144429;28;20046;-63
2022/09/10 04:33:26;;;;;;;25.48;19.40;;;16.60;99.90;;;;;;4145578;28;20083;-67
2022/09/10 04:35:28;;;;;;;27.52;18.95;;;16.60;99.90;;;;;;4144344;28;20034;-64
2022/09/10 04:37:29;;;;;;;26.25;19.55;;;16.60;99.90;;;;;;4145447;28;20033;-63
2022/09/10 04:39:30;;;;;;;26.52;18.95;;;16.60;99.90;;;;;;4144421;28;20061;-63
2022/09/10 04:41:31;;;;;;;26.35;18.92;;;16.60;99.90;;;;;;4145205;28;20030;-61
2022/09/10 04:43:32;;;;;;;28.80;20.38;;;16.60;99.90;;;;;;4144456;28;20018;-63
2022/09/10 04:45:34;;;;;;;30.35;20.63;;;16.60;99.90;;;;;;4145117;28;20072;-62
2022/09/10 04:47:35;;;;;;;29.17;20.23;;;16.60;99.90;;;;;;4145369;28;20104;-62
2022/09/10 04:49:36;;;;;;;29.73;21.40;;;16.60;99.90;;;;;;4144325;28;20072;-63
2022/09/10 04:51:37;;;;;;;29.25;21.20;;;16.60;99.90;;;;;;4147886;28;20497;-63
2022/09/10 04:53:39;;;;;;;27.02;20.23;;;16.70;99.90;;;;;;4148429;28;20068;-63
2022/09/10 04:55:42;;;;;;;29.23;20.45;;;16.70;99.90;;;;;;4150783;28;20026;-62
2022/09/10 04:57:43;;;;;;;32.85;21.50;;;16.70;99.90;;;;;;4150021;28;20060;-62
2022/09/10 04:59:44;;;;;;;29.00;19.35;;;16.70;99.90;;;;;;4150858;28;20367;-62
2022/09/10 05:01:49;;;;;;;29.15;20.02;;;16.70;99.90;;;;;;4149103;28;21171;-63
2022/09/10 05:03:50;;;;;;;29.05;19.88;;;16.70;99.90;;;;;;4149893;28;20109;-66
2022/09/10 05:05:52;;;;;;;27.65;20.13;;;16.70;99.90;;;;;;4149112;28;20046;-63
2022/09/10 05:07:53;;;;;;;31.02;20.40;;;16.80;99.90;;;;;;4150436;28;20041;-62
2022/09/10 05:09:54;;;;;;;27.33;19.85;;;16.80;99.90;;;;;;4149518;28;20433;-64
2022/09/10 05:11:56;;;;;;;27.83;19.95;;;16.80;99.90;;;;;;4150492;28;20088;-62
2022/09/10 05:13:57;;;;;;;26.52;19.85;;;16.80;99.90;;;;;;4149378;28;20151;-62
2022/09/10 05:15:58;;;;;;;24.70;18.77;;;16.80;99.90;;;;;;4150334;28;20037;-63
2022/09/10 05:18:00;;;;;;;27.17;19.95;;;16.80;99.90;;;;;;4150258;28;20045;-63
2022/09/10 05:20:04;;;;;;;25.08;18.15;;;16.80;99.90;;;;;;4149748;28;20167;-65
2022/09/10 05:22:05;;;;;;;27.02;19.10;;;16.90;99.90;;;;;;4149713;28;20112;-66
2022/09/10 05:24:07;;;;;;;27.75;20.60;;;16.90;99.90;;;;;;4149547;28;20782;-64
2022/09/10 05:26:09;;;;;;;25.55;19.02;;;16.90;99.90;;;;;;4149792;28;20056;-63
2022/09/10 05:28:10;;;;;;;25.23;18.55;;;16.90;99.90;;;;;;4153031;28;20107;-62
2022/09/10 05:30:11;;;;;;;30.50;19.05;;;16.90;99.90;;;;;;4166879;28;20033;-62
2022/09/10 05:32:12;;;;;;;27.85;18.98;;;16.90;99.90;;;;;;4162770;28;21835;-63
2022/09/10 05:34:14;;;;;;;31.42;19.80;;;17.00;99.90;;;;;;4150131;28;20026;-62
2022/09/10 05:36:15;;;;;;;31.77;19.95;;;17.00;99.90;;;;;;4149069;28;20478;-63
2022/09/10 05:38:17;;;;;;;27.90;19.42;;;17.00;99.90;;;;;;4150386;28;20041;-64
2022/09/10 05:40:19;;;;;;;32.95;20.95;;;17.00;99.90;;;;;;4149047;28;20422;-65
2022/09/10 05:42:21;;;;;;;33.83;21.25;;;17.00;99.90;;;;;;4150171;28;20026;-63
2022/09/10 05:44:22;;;;;;;32.92;21.52;;;17.00;99.90;;;;;;4148870;28;20450;-63
2022/09/10 05:46:23;;;;;;;33.53;21.15;;;17.00;99.90;;;;;;4150485;28;20538;-62
2022/09/10 05:48:24;;;;;;;30.00;19.98;;;17.00;99.90;;;;;;4152360;28;20112;-62
2022/09/10 05:50:25;;;;;;;31.02;21.33;;;17.00;99.90;;;;;;4166048;28;20103;-62
2022/09/10 05:52:27;;;;;;;28.08;19.35;;;17.10;99.90;;;;;;4165465;28;20088;-63
2022/09/10 05:54:28;;;;;;;28.83;19.95;;;17.10;99.90;;;;;;4165743;28;20429;-63
2022/09/10 05:56:30;;;;;;;27.50;19.38;;;17.20;99.90;;;;;;4166359;28;20381;-63
2022/09/10 05:58:33;;;;;;;32.75;19.60;;;17.30;99.90;;;;;;4165491;28;20037;-63
2022/09/10 06:00:35;;;;;;;29.17;19.20;;;17.60;99.90;;;;;;4165355;28;20087;-64
2022/09/10 06:02:36;;;;;;;29.25;19.50;;;17.80;99.90;;;;;;4146898;28;20038;-63
2022/09/10 06:04:37;;;;;;;27.25;19.88;;;18.00;99.90;;;;;;4146250;28;20029;-63
2022/09/10 06:06:40;;;;;;;25.00;17.58;;;18.30;99.90;;;;;;4146254;28;20088;-63
2022/09/10 06:08:41;;;;;;;31.63;18.00;;;18.30;99.90;;;;;;4152006;28;20034;-64
2022/09/10 06:10:42;;;;;;;27.73;17.88;;;18.40;99.90;;;;;;4151262;28;20025;-63
2022/09/10 06:12:48;;;;;;;24.48;15.43;;;18.60;99.90;;;;;;4147057;28;20038;-64
2022/09/10 06:14:49;;;;;;;19.45;14.52;;;18.70;99.90;;;;;;4146614;28;20053;-63
2022/09/10 06:16:53;;;;;;;17.45;12.85;;;18.80;99.90;;;;;;4147324;28;20034;-63
2022/09/10 06:18:55;;;;;;;17.95;14.25;;;19.00;99.90;;;;;;4146545;28;20379;-62
2022/09/10 06:21:04;;;;;;;16.10;11.57;;;19.00;99.90;;;;;;4146236;28;20096;-66
2022/09/10 06:23:05;;;;;;;17.65;12.32;;;18.90;99.90;;;;;;4146168;28;20026;-64
2022/09/10 06:25:07;;;;;;;17.67;12.65;;;18.80;99.90;;;;;;4146918;28;20470;-64
2022/09/10 06:27:08;;;;;;;17.58;13.02;;;18.70;99.90;;;;;;4146379;28;20037;-65
2022/09/10 06:29:10;;;;;;;18.55;12.10;;;18.70;99.90;;;;;;4146505;28;20030;-63
2022/09/10 06:31:16;;;;;;;16.65;12.43;;;18.70;99.90;;;;;;4146535;28;20077;-66
2022/09/10 06:33:18;;;;;;;15.32;12.02;;;18.70;99.90;;;;;;4146521;28;20050;-65
2022/09/10 06:35:20;;;;;;;17.60;12.60;;;18.70;99.90;;;;;;4146980;28;20148;-67
2022/09/10 06:37:21;;;;;;;16.33;11.45;;;18.60;99.90;;;;;;4145733;28;20573;-64
2022/09/10 06:39:22;;;;;;;16.88;12.00;;;18.70;99.90;;;;;;4146646;28;20116;-63
2022/09/10 06:41:24;;;;;;;14.60;12.57;;;18.60;99.90;;;;;;4145655;28;20034;-65
2022/09/10 06:43:26;;;;;;;20.45;13.25;;;18.60;99.90;;;;;;4146929;28;20037;-63
2022/09/10 06:45:27;;;;;;;17.60;12.50;;;18.50;99.90;;;;;;4145856;28;20092;-63
2022/09/10 06:47:28;;;;;;;17.65;13.52;;;18.50;99.90;;;;;;4146737;28;20457;-64
2022/09/10 06:49:30;;;;;;;17.20;13.85;;;18.50;99.90;;;;;;4146256;28;20422;-65
2022/09/10 06:51:32;;;;;;;18.52;13.80;;;18.40;99.90;;;;;;4146730;28;20114;-67
2022/09/10 06:53:34;;;;;;;20.20;13.60;;;18.40;99.90;;;;;;4145424;28;20424;-64
2022/09/10 06:55:35;;;;;;;18.10;14.20;;;18.40;99.90;;;;;;4146452;28;20421;-64
2022/09/10 06:57:36;;;;;;;24.45;14.98;;;18.40;99.90;;;;;;4145470;28;20104;-64
2022/09/10 06:59:37;;;;;;;25.40;16.90;;;18.40;99.90;;;;;;4145990;28;20038;-64
2022/09/10 07:01:39;;;;;;;22.58;18.13;;;18.50;99.90;;;;;;4145816;28;20030;-69
2022/09/10 07:03:42;;;;;;;30.48;15.88;;;18.60;99.90;;;;;;4145686;28;20029;-68
2022/09/10 07:05:44;;;;;;;20.52;14.88;;;18.90;99.90;;;;;;4146107;28;20038;-67
2022/09/10 07:07:45;;;;;;;20.30;15.73;;;19.20;99.90;;;;;;4145243;28;20045;-68
2022/09/10 07:09:46;;;;;;;17.27;12.35;;;19.50;99.90;;;;;;4145866;28;20038;-66
2022/09/10 07:11:47;;;;;;;14.52;11.88;;;19.80;99.90;;;;;;4144981;28;20038;-68
2022/09/10 07:13:51;;;;;;;13.60;11.27;;;20.00;99.90;;;;;;4146051;28;20109;-65
2022/09/10 07:15:52;;;;;;;14.75;10.82;;;19.90;99.90;;;;;;4145216;28;20045;-66
2022/09/10 07:17:53;;;;;;;13.57;9.90;;;19.90;99.90;;;;;;4146508;28;20425;-65
2022/09/10 07:19:54;;;;;;;11.85;10.48;;;19.80;99.90;;;;;;4145490;28;20482;-67
2022/09/10 07:21:56;;;;;;;14.88;11.05;;;20.00;99.90;;;;;;4146073;28;20022;-66
2022/09/10 07:24:00;;;;;;;11.27;9.52;;;20.20;99.90;;;;;;4144571;28;20072;-63
2022/09/10 07:26:10;;;;;;;11.27;7.72;;;20.40;99.90;;;;;;4146477;28;20045;-65
2022/09/10 07:28:16;;;;;;;9.77;8.00;;;20.70;99.90;;;;;;4144713;28;20073;-65
2022/09/10 07:30:18;;;;;;;8.80;7.15;;;20.90;99.90;;;;;;4145378;28;20084;-62
2022/09/10 07:32:19;;;;;;;11.57;8.02;;;21.10;99.90;;;;;;4146337;28;20042;-62
2022/09/10 07:34:22;;;;;;;10.75;8.00;;;21.20;99.90;;;;;;4146117;28;20453;-63
2022/09/10 07:36:24;;;;;;;12.30;7.75;;;21.40;99.90;;;;;;4156506;28;20560;-64
2022/09/10 07:38:27;;;;;;;11.05;7.95;;;21.40;99.90;;;;;;4161637;28;20473;-63
2022/09/10 07:40:29;;;;;;;8.13;7.32;;;21.50;99.90;;;;;;4150298;28;20030;-71
2022/09/10 07:42:30;;;;;;;9.45;7.93;;;21.50;99.90;;;;;;4144771;28;20033;-66
2022/09/10 07:44:31;;;;;;;9.82;7.40;;;21.50;99.90;;;;;;4145405;28;20034;-68
2022/09/10 07:46:32;;;;;;;9.88;8.00;;;21.60;99.90;;;;;;4144862;28;20030;-69
2022/09/10 07:48:33;;;;;;;12.85;10.07;;;21.60;99.90;;;;;;4152997;28;20087;-69
2022/09/10 07:50:35;;;;;;;12.13;9.55;;;21.70;99.90;;;;;;4159534;28;20107;-68
2022/09/10 07:52:36;;;;;;;11.02;9.30;;;21.70;99.90;;;;;;4154612;28;20113;-70
2022/09/10 07:54:37;;;;;;;13.00;9.27;;;21.70;99.90;;;;;;4144365;28;20552;-62
2022/09/10 07:56:38;;;;;;;11.23;9.63;;;21.70;99.90;;;;;;4145901;28;20441;-62
2022/09/10 07:58:39;;;;;;;13.95;10.82;;;21.80;99.90;;;;;;4144503;28;20336;-64
2022/09/10 08:00:41;;;;;;;11.50;10.10;;;21.80;99.90;;;;;;4145677;28;20084;-62
2022/09/10 08:02:45;;;;;;;11.27;9.18;;;21.60;99.90;;;;;;4144580;28;20029;-68
2022/09/10 08:04:46;;;;;;;12.95;9.73;;;21.60;99.90;;;;;;4145022;28;20045;-68
2022/09/10 08:06:48;;;;;;;10.57;8.70;;;21.50;99.90;;;;;;4144003;28;20017;-66
2022/09/10 08:08:49;;;;;;;12.50;9.95;;;21.50;99.90;;;;;;4144816;28;20559;-65
2022/09/10 08:10:50;;;;;;;12.35;10.02;;;21.60;99.90;;;;;;4145046;28;20034;-64
2022/09/10 08:12:51;;;;;;;12.82;9.80;;;21.70;99.90;;;;;;4144140;28;20544;-65
2022/09/10 08:14:53;;;;;;;10.75;8.80;;;21.90;99.90;;;;;;4145030;28;20038;-65
2022/09/10 08:16:54;;;;;;;10.68;8.48;;;21.90;99.90;;;;;;4144177;28;20042;-65
2022/09/10 08:18:56;;;;;;;9.25;7.75;;;22.20;99.90;;;;;;4145786;28;20373;-64
2022/09/10 08:20:57;;;;;;;10.50;8.30;;;22.30;99.90;;;;;;4143156;28;20569;-67
2022/09/10 08:22:59;;;;;;;9.30;6.97;;;22.50;99.90;;;;;;4145188;28;20474;-66
2022/09/10 08:25:01;;;;;;;9.68;7.78;;;22.70;99.90;;;;;;4143832;28;20446;-65
2022/09/10 08:27:02;;;;;;;10.00;7.00;;;22.80;99.90;;;;;;4144370;28;20037;-65
2022/09/10 08:29:04;;;;;;;14.23;7.45;;;23.20;99.90;;;;;;4143693;28;20053;-64
2022/09/10 08:31:07;;;;;;;10.68;7.63;;;23.30;99.90;;;;;;4144694;28;20033;-64
2022/09/10 08:33:08;;;;;;;9.50;6.10;;;23.50;99.90;;;;;;4144000;28;20458;-64
2022/09/10 08:35:09;;;;;;;9.75;7.53;;;23.90;99.90;;;;;;4144950;28;20092;-63
2022/09/10 08:37:11;;;;;;;11.77;7.10;;;24.40;99.90;;;;;;4144000;28;20095;-62
2022/09/10 08:39:13;;;;;;;9.02;6.43;;;24.80;99.90;;;;;;4144523;28;20107;-62
2022/09/10 08:41:41;;;;;;;8.13;6.32;;;25.10;99.90;;;;;;4144258;28;20791;-64
2022/09/10 08:44:02;;;;;;;28.50;15.27;;;25.60;99.90;;;;;;4144505;28;20433;-63
2022/09/10 08:46:13;;;;;;;21.25;11.30;;;25.70;99.90;;;;;;4143192;28;20743;-63
2022/09/10 08:48:19;;;;;;;8.07;6.00;;;25.80;99.90;;;;;;4145125;28;20046;-62
2022/09/10 08:50:49;;;;;;;12.38;7.88;;;25.80;99.90;;;;;;4144339;28;20092;-62
2022/09/10 08:53:17;;;;;;;7.50;6.30;;;25.80;99.90;;;;;;4145035;28;20402;-65
2022/09/10 08:55:21;;;;;;;13.45;7.60;;;25.70;99.90;;;;;;4140529;28;20155;-62
2022/09/10 08:57:46;;;;;;;13.48;6.70;;;25.60;99.90;;;;;;4144823;28;20034;-62
2022/09/10 08:59:51;;;;;;;12.23;7.25;;;25.40;99.90;;;;;;4143790;28;20064;-64
2022/09/10 09:02:09;;;;;;;13.30;8.70;;;25.50;99.90;;;;;;4144896;28;20104;-62
2022/09/10 09:04:27;;;;;;;14.82;8.82;;;25.50;99.90;;;;;;4143331;28;20029;-62
2022/09/10 09:06:44;;;;;;;12.75;7.63;;;25.70;99.90;;;;;;4144545;28;20052;-64
2022/09/10 09:08:47;;;;;;;11.85;7.50;;;26.00;99.90;;;;;;4143444;28;20045;-66
2022/09/10 09:11:16;;;;;;;13.15;7.28;;;26.00;99.90;;;;;;4144677;28;20101;-63
2022/09/10 09:13:38;;;;;;;10.75;7.45;;;26.00;99.90;;;;;;4143983;28;20033;-64
2022/09/10 09:15:51;;;;;;;7.95;6.20;;;26.00;99.90;;;;;;4144185;28;20084;-64
2022/09/10 09:18:23;;;;;;;11.38;6.55;;;26.00;99.90;;;;;;4144583;28;20042;-64
2022/09/10 09:20:46;;;;;;;7.85;6.40;;;25.80;99.90;;;;;;4143941;28;20389;-64
2022/09/10 09:22:55;;;;;;;7.97;6.90;;;25.50;99.90;;;;;;4144621;28;20791;-64
2022/09/10 09:24:59;;;;;;;10.30;6.60;;;25.50;99.90;;;;;;4142013;28;20026;-68
2022/09/10 09:27:09;;;;;;;8.30;6.88;;;25.50;99.90;;;;;;4143342;28;20081;-65
2022/09/10 09:29:18;;;;;;;7.20;6.60;;;25.50;99.90;;;;;;4142824;28;20050;-66
2022/09/10 09:31:25;;;;;;;8.43;7.10;;;25.30;99.90;;;;;;4143827;28;20034;-64
2022/09/10 09:33:29;;;;;;;10.40;7.35;;;25.30;99.90;;;;;;4143359;28;20026;-64
2022/09/10 09:35:40;;;;;;;8.00;7.18;;;25.30;99.90;;;;;;4144541;28;20375;-71
2022/09/10 09:37:47;;;;;;;8.73;6.90;;;25.30;99.90;;;;;;4143233;28;20107;-65
2022/09/10 09:40:04;;;;;;;8.48;7.68;;;25.30;99.90;;;;;;4147156;28;20478;-68
2022/09/10 09:42:28;;;;;;;9.73;6.30;;;25.40;99.90;;;;;;4146346;28;20084;-74
2022/09/10 09:44:39;;;;;;;7.85;7.13;;;25.40;99.90;;;;;;4147540;28;20026;-66
2022/09/10 09:46:41;;;;;;;11.55;7.55;;;25.50;99.90;;;;;;4147518;28;20103;-67
2022/09/10 09:48:43;;;;;;;13.38;6.88;;;25.50;99.90;;;;;;4163925;28;20049;-67
2022/09/10 09:50:47;;;;;;;9.38;7.07;;;25.50;99.90;;;;;;4162859;28;20026;-68
2022/09/10 09:52:53;;;;;;;8.52;7.07;;;25.50;99.90;;;;;;4163553;28;20033;-67
2022/09/10 09:55:00;;;;;;;10.90;6.70;;;25.50;99.90;;;;;;4163259;28;20072;-66
2022/09/10 09:57:01;;;;;;;8.82;6.75;;;25.60;99.90;;;;;;4163493;28;20025;-66
2022/09/10 09:59:28;;;;;;;9.07;7.20;;;25.60;99.90;;;;;;4146416;28;20115;-67
2022/09/10 10:01:32;;;;;;;7.88;7.10;;;25.70;99.90;;;;;;4146082;28;20092;-66
2022/09/10 10:03:53;;;;;;;8.27;7.07;;;25.60;99.90;;;;;;4145881;28;20790;-67
2022/09/10 10:06:05;;;;;;;7.32;6.72;;;25.70;99.90;;;;;;4147055;28;20042;-69
2022/09/10 10:08:28;;;;;;;7.43;6.63;;;25.80;99.90;;;;;;4145554;28;20080;-68
2022/09/10 10:10:29;;;;;;;8.05;7.15;;;25.70;99.90;;;;;;4146108;28;20025;-67
2022/09/10 10:12:31;;;;;;;6.68;6.00;;;25.60;99.90;;;;;;4146113;28;20065;-68
2022/09/10 10:14:38;;;;;;;6.95;6.35;;;25.50;99.90;;;;;;4146708;28;20042;-66
2022/09/10 10:16:39;;;;;;;6.85;6.25;;;25.30;99.90;;;;;;4144585;28;20018;-63
2022/09/10 10:18:42;;;;;;;7.18;6.43;;;25.10;99.90;;;;;;4146967;28;20050;-66
2022/09/10 10:20:43;;;;;;;7.00;6.30;;;24.90;99.90;;;;;;4146627;28;20042;-66
2022/09/10 10:22:47;;;;;;;10.82;6.45;;;24.70;99.90;;;;;;4146087;28;20104;-69
2022/09/10 10:24:51;;;;;;;7.53;6.65;;;24.60;99.90;;;;;;4146422;28;20088;-66
2022/09/10 10:26:52;;;;;;;8.25;7.22;;;24.50;99.90;;;;;;4145800;28;20037;-69
2022/09/10 10:29:02;;;;;;;7.40;6.68;;;24.40;99.90;;;;;;4146636;28;20030;-66
2022/09/10 10:31:04;;;;;;;6.88;6.18;;;24.40;99.90;;;;;;4145849;28;20033;-66
2022/09/10 10:33:16;;;;;;;7.93;6.10;;;24.40;99.90;;;;;;4146681;28;20041;-66
2022/09/10 10:35:28;;;;;;;9.90;6.82;;;24.30;99.90;;;;;;4145879;28;20050;-65